createdAt,value
2019-06-07T05:39:25.219Z,1007.44
2019-06-07T05:40:25.200Z,1007.44
2019-06-07T05:41:25.215Z,1007.45
2019-06-07T05:42:25.176Z,1007.45
2019-06-07T05:43:25.171Z,1007.42
2019-06-07T05:44:25.165Z,1007.37
2019-06-07T05:45:25.143Z,1007.40
2019-06-07T05:46:25.145Z,1007.38
2019-06-07T05:47:25.517Z,1007.46
2019-06-07T05:48:25.111Z,1007.36
2019-06-07T05:49:25.099Z,1007.37
2019-06-07T05:50:39.234Z,1007.49
2019-06-07T05:51:26.086Z,1007.32
2019-06-07T05:52:25.067Z,1007.42
2019-06-07T05:53:25.053Z,1007.47
2019-06-07T05:54:25.046Z,1007.41
2019-06-07T05:55:25.030Z,1007.41
2019-06-07T05:56:25.031Z,1007.32
2019-06-07T05:57:25.018Z,1007.37
2019-06-07T05:58:25.004Z,1007.36
2019-06-07T05:59:24.986Z,1007.28
2019-06-07T06:00:25.279Z,1007.24
2019-06-07T06:01:42.826Z,1007.24
2019-06-07T06:02:26.074Z,1007.21
2019-06-07T06:03:24.943Z,1007.25
2019-06-07T06:04:24.931Z,1007.28
2019-06-07T06:05:34.394Z,1007.21
2019-06-07T06:06:25.916Z,1007.19
2019-06-07T06:07:24.900Z,1007.10
2019-06-07T06:08:24.886Z,1007.14
2019-06-07T06:09:24.874Z,1007.16
2019-06-07T06:10:24.863Z,1007.14
2019-06-07T06:11:42.988Z,1007.17
2019-06-07T06:12:35.254Z,1007.24
2019-06-07T06:13:25.833Z,1007.14
2019-06-07T06:14:24.818Z,1007.15
2019-06-07T06:15:41.466Z,1007.10
2019-06-07T06:16:25.805Z,1007.13
2019-06-07T06:17:24.787Z,1007.04
2019-06-07T06:18:24.774Z,1007.04
2019-06-07T06:19:24.791Z,1007.01
2019-06-07T06:20:32.494Z,1006.89
2019-06-07T06:21:25.751Z,1006.89
2019-06-07T06:22:24.731Z,1006.93
2019-06-07T06:23:24.720Z,1006.84
2019-06-07T06:24:24.711Z,1006.88
2019-06-07T06:25:33.758Z,1006.84
2019-06-07T06:26:25.697Z,1006.76
2019-06-07T06:28:25.663Z,1006.78
2019-06-07T06:29:24.652Z,1006.74
2019-06-07T06:30:24.642Z,1006.75
2019-06-07T06:31:24.674Z,1006.73
2019-06-07T06:32:42.065Z,1006.76
2019-06-07T06:33:33.452Z,1006.79
2019-06-07T06:34:25.599Z,1006.73
2019-06-07T06:35:24.587Z,1006.74
2019-06-07T06:36:24.587Z,1006.66
2019-06-07T06:37:24.569Z,1006.69
2019-06-07T06:38:24.560Z,1006.65
2019-06-07T06:39:24.539Z,1006.66
2019-06-07T06:40:24.533Z,1006.52
2019-06-07T06:41:24.519Z,1006.57
2019-06-07T06:42:24.519Z,1006.58
2019-06-07T06:43:24.495Z,1006.55
2019-06-07T06:44:24.490Z,1006.53
2019-06-07T06:45:24.476Z,1006.59
2019-06-07T06:46:37.925Z,1006.52
2019-06-07T06:47:25.459Z,1006.56
2019-06-07T06:48:24.441Z,1006.61
2019-06-07T06:49:24.431Z,1006.60
2019-06-07T06:50:24.418Z,1006.60
2019-06-07T06:51:24.407Z,1006.60
2019-06-07T06:52:24.405Z,1006.63
2019-06-07T06:53:24.392Z,1006.64
2019-06-07T06:54:40.226Z,1006.58
2019-06-07T06:55:25.363Z,1006.57
2019-06-07T06:56:24.351Z,1006.57
2019-06-07T06:57:24.352Z,1006.54
2019-06-07T06:58:24.330Z,1006.42
2019-06-07T06:59:38.858Z,1006.46
2019-06-07T07:00:43.035Z,1006.47
2019-06-07T07:01:25.295Z,1006.49
2019-06-07T07:02:24.293Z,1006.30
2019-06-07T07:03:56.450Z,1006.36
2019-06-07T07:04:25.262Z,1006.39
2019-06-07T07:05:24.249Z,1006.35
2019-06-07T07:06:26.884Z,1006.45
2019-06-07T07:07:24.238Z,1006.46
2019-06-07T07:08:24.219Z,1006.37
2019-06-07T07:09:24.206Z,1006.36
2019-06-07T07:10:24.195Z,1006.55
2019-06-07T07:11:24.184Z,1006.48
2019-06-07T07:12:24.200Z,1006.50
2019-06-07T07:13:24.163Z,1006.45
2019-06-07T07:14:24.150Z,1006.43
2019-06-07T07:15:24.141Z,1006.40
2019-06-07T07:16:24.127Z,1006.37
2019-06-07T07:17:46.675Z,1006.32
2019-06-07T07:18:25.104Z,1006.30
2019-06-07T07:19:24.093Z,1006.23
2019-06-07T07:20:24.439Z,1006.25
2019-06-07T07:21:24.070Z,1006.31
2019-06-07T07:22:24.070Z,1006.30
2019-06-07T07:23:24.049Z,1006.31
2019-06-07T07:24:24.038Z,1006.30
2019-06-07T07:25:24.027Z,1006.35
2019-06-07T07:26:24.044Z,1006.32
2019-06-07T07:27:24.012Z,1006.23
2019-06-07T07:28:23.994Z,1006.31
2019-06-07T07:29:24.033Z,1006.20
2019-06-07T07:30:36.514Z,1006.16
2019-06-07T07:31:24.962Z,1006.10
2019-06-07T07:32:23.957Z,1006.16
2019-06-07T07:33:23.936Z,1006.11
2019-06-07T07:34:34.545Z,1006.11
2019-06-07T07:35:24.911Z,1006.00
2019-06-07T07:36:38.684Z,1006.00
2019-06-07T07:37:24.909Z,1006.03
2019-06-07T07:38:23.907Z,1006.06
2019-06-07T07:39:23.867Z,1006.04
2019-06-07T07:41:24.845Z,1006.07
2019-06-07T07:42:23.835Z,1006.03
2019-06-07T07:43:23.834Z,1006.09
2019-06-07T07:44:23.815Z,1005.95
2019-06-07T07:45:23.801Z,1006.01
2019-06-07T07:46:29.678Z,1005.96
2019-06-07T07:47:24.777Z,1005.95
2019-06-07T07:48:23.775Z,1005.93
2019-06-07T07:49:23.755Z,1005.96
2019-06-07T07:50:23.747Z,1006.03
2019-06-07T07:51:23.736Z,1005.93
2019-06-07T07:52:23.721Z,1005.89
2019-06-07T07:53:23.719Z,1005.83
2019-06-07T07:54:23.700Z,1005.82
2019-06-07T07:55:23.723Z,1005.88
2019-06-07T07:56:23.680Z,1005.93
2019-06-07T07:57:23.670Z,1005.74
2019-06-07T07:58:23.665Z,1005.73
2019-06-07T07:59:41.066Z,1005.78
2019-06-07T08:00:50.328Z,1005.75
2019-06-07T08:01:24.622Z,1005.73
2019-06-07T08:02:23.609Z,1005.65
2019-06-07T08:03:23.609Z,1005.67
2019-06-07T08:04:29.464Z,1005.65
2019-06-07T08:05:41.590Z,1005.57
2019-06-07T08:06:24.567Z,1005.52
2019-06-07T08:07:23.572Z,1005.51
2019-06-07T08:08:23.556Z,1005.51
2019-06-07T08:09:23.534Z,1005.52
2019-06-07T08:10:23.538Z,1005.48
2019-06-07T08:11:23.509Z,1005.49
2019-06-07T08:12:23.503Z,1005.49
2019-06-07T08:13:26.855Z,1005.46
2019-06-07T08:14:23.492Z,1005.44
2019-06-07T08:15:23.467Z,1005.48
2019-06-07T08:16:23.456Z,1005.38
2019-06-07T08:17:23.445Z,1005.31
2019-06-07T08:18:23.445Z,1005.33
2019-06-07T08:19:23.424Z,1005.30
2019-06-07T08:20:23.413Z,1005.41
2019-06-07T08:21:26.654Z,1005.43
2019-06-07T08:22:23.391Z,1005.29
2019-06-07T08:23:23.388Z,1005.38
2019-06-07T08:24:23.367Z,1005.21
2019-06-07T08:25:23.357Z,1005.26
2019-06-07T08:26:23.351Z,1005.28
2019-06-07T08:27:26.778Z,1005.20
2019-06-07T08:28:23.334Z,1005.26
2019-06-07T08:29:23.373Z,1005.23
2019-06-07T08:30:47.974Z,1005.18
2019-06-07T08:31:24.291Z,1005.20
2019-06-07T08:32:23.278Z,1005.25
2019-06-07T08:33:26.339Z,1005.16
2019-06-07T08:34:23.253Z,1005.26
2019-06-07T08:36:02.891Z,1005.18
2019-06-07T08:36:40.810Z,1005.27
2019-06-07T08:38:13.447Z,1005.24
2019-06-07T08:38:29.675Z,1005.18
2019-06-07T08:39:24.215Z,1005.07
2019-06-07T08:40:23.185Z,1005.10
2019-06-07T08:41:23.178Z,1005.01
2019-06-07T08:42:36.493Z,1005.03
2019-06-07T08:43:24.153Z,1005.15
2019-06-07T08:44:25.498Z,1004.97
2019-06-07T08:45:23.132Z,1005.09
2019-06-07T08:46:23.124Z,1005.05
2019-06-07T08:47:23.108Z,1005.04
2019-06-07T08:48:28.002Z,1004.98
2019-06-07T08:49:24.094Z,1005.10
2019-06-07T08:50:23.083Z,1005.06
2019-06-07T08:51:23.063Z,1005.05
2019-06-07T08:52:23.053Z,1005.02
2019-06-07T08:53:23.042Z,1004.96
2019-06-07T08:54:23.562Z,1005.04
2019-06-07T08:55:23.020Z,1004.90
2019-06-07T08:56:23.014Z,1005.17
2019-06-07T08:57:23.002Z,1005.03
2019-06-07T08:58:22.999Z,1004.95
2019-06-07T08:59:22.983Z,1005.03
2019-06-07T09:00:45.540Z,1004.98
2019-06-07T09:01:23.952Z,1004.90
2019-06-07T09:02:24.166Z,1004.88
2019-06-07T09:03:22.938Z,1005.00
2019-06-07T09:04:22.933Z,1004.91
2019-06-07T09:05:22.909Z,1004.87
2019-06-07T09:07:23.891Z,1004.81
2019-06-07T09:08:29.802Z,1004.71
2019-06-07T09:09:23.873Z,1004.73
2019-06-07T09:10:22.856Z,1004.72
2019-06-07T09:11:22.843Z,1004.73
2019-06-07T09:12:22.833Z,1004.69
2019-06-07T09:13:22.821Z,1004.60
2019-06-07T09:14:22.821Z,1004.58
2019-06-07T09:15:24.319Z,1004.61
2019-06-07T09:16:22.792Z,1004.67
2019-06-07T09:17:22.777Z,1004.54
2019-06-07T09:18:40.849Z,1004.51
2019-06-07T09:19:23.762Z,1004.43
2019-06-07T09:20:36.532Z,1004.42
2019-06-07T09:21:23.731Z,1004.45
2019-06-07T09:22:22.722Z,1004.46
2019-06-07T09:23:22.709Z,1004.37
2019-06-07T09:24:22.710Z,1004.43
2019-06-07T09:25:22.692Z,1004.39
2019-06-07T09:26:22.676Z,1004.41
2019-06-07T09:27:22.666Z,1004.50
2019-06-07T09:28:22.656Z,1004.42
2019-06-07T09:29:22.661Z,1004.50
2019-06-07T09:30:22.637Z,1004.38
2019-06-07T09:31:22.626Z,1004.47
2019-06-07T09:32:22.613Z,1004.32
2019-06-07T09:33:22.601Z,1004.28
2019-06-07T09:34:22.610Z,1004.32
2019-06-07T09:35:22.589Z,1004.40
2019-06-07T09:36:22.568Z,1004.32
2019-06-07T09:38:03.669Z,1004.33
2019-06-07T09:38:26.082Z,1004.37
2019-06-07T09:39:22.535Z,1004.46
2019-06-07T09:40:27.629Z,1004.58
2019-06-07T09:41:42.724Z,1004.42
2019-06-07T09:42:23.502Z,1004.48
2019-06-07T09:44:26.176Z,1004.37
2019-06-07T09:45:22.480Z,1004.29
2019-06-07T09:46:22.472Z,1004.45
2019-06-07T09:47:32.322Z,1004.42
2019-06-07T09:49:09.145Z,1004.40
2019-06-07T09:49:31.896Z,1004.52
2019-06-07T09:50:23.427Z,1004.42
2019-06-07T09:51:22.411Z,1004.36
2019-06-07T09:52:22.404Z,1004.41
2019-06-07T09:53:23.534Z,1004.41
2019-06-07T09:55:04.066Z,1004.44
2019-06-07T09:55:25.051Z,1004.37
2019-06-07T09:56:22.362Z,1004.35
2019-06-07T09:57:22.342Z,1004.38
2019-06-07T09:59:23.322Z,1004.42
2019-06-07T10:00:39.714Z,1004.35
2019-06-07T10:01:23.366Z,1004.34
2019-06-07T10:02:22.289Z,1004.38
2019-06-07T10:03:22.864Z,1004.41
2019-06-07T10:04:31.233Z,1004.39
2019-06-07T10:05:23.267Z,1004.36
2019-06-07T10:06:22.272Z,1004.37
2019-06-07T10:07:31.351Z,1004.35
2019-06-07T10:09:42.306Z,1004.38
2019-06-07T10:10:08.602Z,1004.34
2019-06-07T10:11:23.197Z,1004.37
2019-06-07T10:12:22.193Z,1004.41
2019-06-07T10:13:22.220Z,1004.27
2019-06-07T10:14:22.208Z,1004.29
2019-06-07T10:15:22.177Z,1004.29
2019-06-07T10:16:22.145Z,1003.97
2019-06-07T10:17:22.136Z,1004.08
2019-06-07T10:18:22.130Z,1004.29
2019-06-07T10:19:22.132Z,1004.19
2019-06-07T10:20:22.113Z,1004.25
2019-06-07T10:21:22.126Z,1004.26
2019-06-07T10:22:22.158Z,1004.30
2019-06-07T10:23:22.074Z,1004.29
2019-06-07T10:24:22.063Z,1004.30
2019-06-07T10:25:22.072Z,1004.33
2019-06-07T10:26:22.045Z,1004.28
2019-06-07T10:27:22.199Z,1004.27
2019-06-07T10:28:22.025Z,1004.17
2019-06-07T10:29:22.018Z,1004.27
2019-06-07T10:30:22.028Z,1004.24
2019-06-07T10:31:22.018Z,1004.26
2019-06-07T10:32:22.000Z,1004.24
2019-06-07T10:33:21.978Z,1004.27
2019-06-07T10:34:21.967Z,1004.28
2019-06-07T10:35:21.961Z,1004.25
2019-06-07T10:36:21.967Z,1004.25
2019-06-07T10:37:21.936Z,1004.23
2019-06-07T10:38:21.941Z,1004.25
2019-06-07T10:39:21.922Z,1004.16
2019-06-07T10:40:21.914Z,1004.16
2019-06-07T10:41:21.920Z,1004.16
2019-06-07T10:42:21.887Z,1004.14
2019-06-07T10:43:21.874Z,1004.12
2019-06-07T10:44:21.875Z,1003.99
2019-06-07T10:45:21.888Z,1004.02
2019-06-07T10:46:21.851Z,1003.95
2019-06-07T10:47:21.866Z,1003.89
2019-06-07T10:48:24.796Z,1003.87
2019-06-07T10:49:21.814Z,1003.82
2019-06-07T10:50:21.813Z,1003.78
2019-06-07T10:51:21.810Z,1003.78
2019-06-07T10:52:21.789Z,1003.69
2019-06-07T10:53:21.834Z,1003.75
2019-06-07T10:54:29.647Z,1003.80
2019-06-07T10:55:22.758Z,1003.74
2019-06-07T10:56:21.756Z,1003.74
2019-06-07T10:57:21.754Z,1003.72
2019-06-07T10:58:21.724Z,1003.73
2019-06-07T10:59:21.716Z,1003.77
2019-06-07T11:00:21.750Z,1003.68
2019-06-07T11:01:21.712Z,1003.69
2019-06-07T11:02:21.702Z,1003.62
2019-06-07T11:03:21.683Z,1003.66
2019-06-07T11:04:21.674Z,1003.55
2019-06-07T11:05:21.667Z,1003.61
2019-06-07T11:06:21.663Z,1003.58
2019-06-07T11:07:21.653Z,1003.51
2019-06-07T11:08:21.625Z,1003.50
2019-06-07T11:09:21.652Z,1003.50
2019-06-07T11:10:21.620Z,1003.34
2019-06-07T11:11:21.606Z,1003.32
2019-06-07T11:12:21.589Z,1003.26
2019-06-07T11:13:21.573Z,1003.28
2019-06-07T11:14:21.566Z,1003.20
2019-06-07T11:15:21.556Z,1003.13
2019-06-07T11:16:21.555Z,1003.15
2019-06-07T11:17:21.549Z,1003.10
2019-06-07T11:18:21.546Z,1003.16
2019-06-07T11:19:21.518Z,1003.20
2019-06-07T11:20:21.504Z,1002.99
2019-06-07T11:21:21.505Z,1002.64
2019-06-07T11:22:21.485Z,1002.74
2019-06-07T11:23:21.476Z,1002.68
2019-06-07T11:24:24.593Z,1002.66
2019-06-07T11:25:21.492Z,1002.62
2019-06-07T11:26:21.450Z,1002.68
2019-06-07T11:27:21.432Z,1002.67
2019-06-07T11:28:21.441Z,1002.64
2019-06-07T11:29:21.424Z,1002.71
2019-06-07T11:30:21.410Z,1002.59
2019-06-07T11:31:21.398Z,1002.58
2019-06-07T11:32:21.381Z,1002.61
2019-06-07T11:33:21.371Z,1002.56
2019-06-07T11:34:21.357Z,1002.60
2019-06-07T11:35:21.348Z,1002.48
2019-06-07T11:36:21.354Z,1002.52
2019-06-07T11:37:21.356Z,1002.39
2019-06-07T11:38:21.326Z,1002.32
2019-06-07T11:39:21.320Z,1002.21
2019-06-07T11:40:34.087Z,1002.28
2019-06-07T11:41:22.301Z,1002.29
2019-06-07T11:42:21.275Z,1002.19
2019-06-07T11:43:21.279Z,1002.16
2019-06-07T11:44:21.251Z,1002.09
2019-06-07T11:45:21.245Z,1002.15
2019-06-07T11:46:21.255Z,1002.24
2019-06-07T11:47:21.243Z,1002.28
2019-06-07T11:48:21.212Z,1002.23
2019-06-07T11:49:22.108Z,1002.14
2019-06-07T11:50:21.187Z,1002.05
2019-06-07T11:51:21.228Z,1002.03
2019-06-07T11:52:21.206Z,1002.02
2019-06-07T11:53:21.156Z,1002.05
2019-06-07T11:54:21.152Z,1002.00
2019-06-07T11:55:21.132Z,1002.01
2019-06-07T11:56:21.123Z,1002.13
2019-06-07T11:57:21.359Z,1001.98
2019-06-07T11:58:21.835Z,1001.96
2019-06-07T11:59:21.094Z,1002.02
2019-06-07T12:00:21.091Z,1002.02
2019-06-07T12:01:21.069Z,1002.12
2019-06-07T12:02:21.070Z,1002.15
2019-06-07T12:03:21.052Z,1002.15
2019-06-07T12:04:32.454Z,1002.04
2019-06-07T12:05:22.029Z,1002.00
2019-06-07T12:06:21.021Z,1001.99
2019-06-07T12:07:21.022Z,1002.00
2019-06-07T12:08:21.012Z,1001.96
2019-06-07T12:09:20.984Z,1001.98
2019-06-07T12:10:23.038Z,1001.91
2019-06-07T12:11:21.011Z,1001.92
2019-06-07T12:12:21.111Z,1001.87
2019-06-07T12:13:20.943Z,1001.88
2019-06-07T12:14:20.930Z,1001.87
2019-06-07T12:15:20.938Z,1001.96
2019-06-07T12:16:20.928Z,1001.84
2019-06-07T12:17:20.912Z,1001.83
2019-06-07T12:18:20.897Z,1001.80
2019-06-07T12:19:20.877Z,1001.91
2019-06-07T12:20:21.185Z,1001.99
2019-06-07T12:21:20.855Z,1001.90
2019-06-07T12:22:20.854Z,1001.79
2019-06-07T12:23:20.897Z,1001.68
2019-06-07T12:24:21.205Z,1001.68
2019-06-07T12:25:24.751Z,1001.71
2019-06-07T12:26:20.899Z,1001.82
2019-06-07T12:27:20.890Z,1001.72
2019-06-07T12:28:21.052Z,1001.74
2019-06-07T12:29:21.138Z,1001.80
2019-06-07T12:30:27.304Z,1001.75
2019-06-07T12:31:21.742Z,1001.70
2019-06-07T12:32:21.580Z,1001.79
2019-06-07T12:33:21.704Z,1001.67
2019-06-07T12:34:21.667Z,1001.69
2019-06-07T12:35:21.867Z,1001.74
2019-06-07T12:36:21.980Z,1001.79
2019-06-07T12:37:25.299Z,1001.70
2019-06-07T12:38:23.128Z,1001.73
2019-06-07T12:39:20.655Z,1001.75
2019-06-07T12:40:30.109Z,1001.79
2019-06-07T12:41:22.407Z,1001.84
2019-06-07T12:42:20.686Z,1001.87
2019-06-07T12:43:20.913Z,1001.76
2019-06-07T12:44:20.798Z,1001.78
2019-06-07T12:45:41.311Z,1001.76
2019-06-07T12:46:27.971Z,1001.74
2019-06-07T12:47:21.579Z,1001.79
2019-06-07T12:48:23.994Z,1001.81
2019-06-07T12:49:21.569Z,1001.73
2019-06-07T12:50:21.716Z,1001.73
2019-06-07T12:51:21.270Z,1001.70
2019-06-07T12:52:22.810Z,1001.73
2019-06-07T12:53:25.927Z,1001.75
2019-06-07T12:54:21.728Z,1001.74
2019-06-07T12:55:22.499Z,1001.72
2019-06-07T12:56:21.820Z,1001.95
2019-06-07T12:57:20.462Z,1001.78
2019-06-07T12:58:27.187Z,1001.71
2019-06-07T12:59:22.101Z,1001.76
2019-06-07T13:00:20.438Z,1001.71
2019-06-07T13:01:20.831Z,1001.76
2019-06-07T13:02:22.065Z,1001.69
2019-06-07T13:03:20.965Z,1001.80
2019-06-07T13:04:20.562Z,1001.79
2019-06-07T13:05:21.636Z,1001.83
2019-06-07T13:06:21.600Z,1001.77
2019-06-07T13:07:21.957Z,1001.77
2019-06-07T13:08:21.927Z,1001.77
2019-06-07T13:09:21.838Z,1001.73
2019-06-07T13:10:21.944Z,1001.75
2019-06-07T13:11:26.166Z,1001.90
2019-06-07T13:12:21.753Z,1001.71
2019-06-07T13:13:21.059Z,1001.83
2019-06-07T13:14:20.281Z,1001.65
2019-06-07T13:15:22.682Z,1001.68
2019-06-07T13:16:20.246Z,1001.74
2019-06-07T13:17:20.409Z,1001.70
2019-06-07T13:18:21.617Z,1001.78
2019-06-07T13:19:20.215Z,1001.64
2019-06-07T13:20:20.489Z,1001.72
2019-06-07T13:21:20.351Z,1001.64
2019-06-07T13:22:20.453Z,1001.81
2019-06-07T13:23:20.861Z,1001.76
2019-06-07T13:24:20.912Z,1001.83
2019-06-07T13:25:21.285Z,1001.85
2019-06-07T13:26:20.607Z,1001.82
2019-06-07T13:27:20.395Z,1001.70
2019-06-07T13:28:20.729Z,1001.64
2019-06-07T13:29:20.462Z,1001.71
2019-06-07T13:30:21.059Z,1001.72
2019-06-07T13:31:21.080Z,1001.68
2019-06-07T13:32:20.095Z,1001.61
2019-06-07T13:33:21.774Z,1001.60
2019-06-07T13:34:20.529Z,1001.64
2019-06-07T13:35:21.974Z,1001.62
2019-06-07T13:36:20.214Z,1001.62
2019-06-07T13:37:21.111Z,1001.70
2019-06-07T13:38:20.585Z,1001.69
2019-06-07T13:39:23.199Z,1001.66
2019-06-07T13:40:21.560Z,1001.69
2019-06-07T13:41:32.584Z,1001.65
2019-06-07T13:42:20.958Z,1001.70
2019-06-07T13:43:19.955Z,1001.65
2019-06-07T13:44:20.962Z,1001.67
2019-06-07T13:45:20.123Z,1001.69
2019-06-07T13:46:20.940Z,1001.60
2019-06-07T13:47:21.111Z,1001.56
2019-06-07T13:48:21.155Z,1001.55
2019-06-07T13:49:21.403Z,1001.50
2019-06-07T13:50:19.880Z,1001.46
2019-06-07T13:51:21.157Z,1001.49
2019-06-07T13:52:19.847Z,1001.41
2019-06-07T13:53:20.701Z,1001.42
2019-06-07T13:54:20.673Z,1001.40
2019-06-07T13:55:20.090Z,1001.44
2019-06-07T13:56:19.884Z,1001.45
2019-06-07T13:57:20.027Z,1001.44
2019-06-07T13:58:21.294Z,1001.39
2019-06-07T13:59:20.460Z,1001.36
2019-06-07T14:00:22.728Z,1001.35
2019-06-07T14:01:20.337Z,1001.34
2019-06-07T14:02:20.857Z,1001.31
2019-06-07T14:03:23.655Z,1001.42
2019-06-07T14:04:20.969Z,1001.44
2019-06-07T14:05:20.924Z,1001.38
2019-06-07T14:06:20.843Z,1001.48
2019-06-07T14:07:21.186Z,1001.42
2019-06-07T14:08:21.006Z,1001.42
2019-06-07T14:09:19.660Z,1001.49
2019-06-07T14:10:19.683Z,1001.36
2019-06-07T14:11:19.645Z,1001.42
2019-06-07T14:12:19.636Z,1001.45
2019-06-07T14:13:19.625Z,1001.46
2019-06-07T14:14:20.164Z,1001.43
2019-06-07T14:15:20.522Z,1001.50
2019-06-07T14:16:20.032Z,1001.43
2019-06-07T14:17:19.577Z,1001.57
2019-06-07T14:18:20.349Z,1001.71
2019-06-07T14:19:20.421Z,1001.61
2019-06-07T14:20:25.434Z,1001.55
2019-06-07T14:21:20.525Z,1001.64
2019-06-07T14:22:20.536Z,1001.63
2019-06-07T14:23:37.954Z,1001.64
2019-06-07T14:24:20.937Z,1001.55
2019-06-07T14:25:19.799Z,1001.55
2019-06-07T14:26:19.565Z,1001.60
2019-06-07T14:27:19.466Z,1001.49
2019-06-07T14:28:19.508Z,1001.61
2019-06-07T14:29:19.463Z,1001.48
2019-06-07T14:30:19.450Z,1001.48
2019-06-07T14:31:19.420Z,1001.53
2019-06-07T14:32:19.410Z,1001.36
2019-06-07T14:33:23.033Z,1001.33
2019-06-07T14:34:20.398Z,1001.26
2019-06-07T14:35:19.378Z,1001.27
2019-06-07T14:36:19.364Z,1001.24
2019-06-07T14:37:19.364Z,1001.29
2019-06-07T14:38:19.348Z,1001.27
2019-06-07T14:39:19.358Z,1001.29
2019-06-07T14:40:19.321Z,1001.32
2019-06-07T14:41:19.327Z,1001.36
2019-06-07T14:42:19.335Z,1001.41
2019-06-07T14:43:19.282Z,1001.44
2019-06-07T14:44:19.288Z,1001.41
2019-06-07T14:45:19.294Z,1001.38
2019-06-07T14:46:19.252Z,1001.35
2019-06-07T14:47:19.329Z,1001.30
2019-06-07T14:48:19.237Z,1001.30
2019-06-07T14:49:19.228Z,1001.34
2019-06-07T14:50:19.268Z,1001.44
2019-06-07T14:51:19.197Z,1001.42
2019-06-07T14:52:19.186Z,1001.45
2019-06-07T14:53:19.175Z,1001.43
2019-06-07T14:54:19.173Z,1001.41
2019-06-07T14:55:19.278Z,1001.35
2019-06-07T14:56:19.144Z,1001.40
2019-06-07T14:57:19.131Z,1001.50
2019-06-07T14:58:19.131Z,1001.61
2019-06-07T14:59:19.120Z,1001.59
2019-06-07T15:00:19.118Z,1001.51
2019-06-07T15:01:19.093Z,1001.58
2019-06-07T15:02:19.100Z,1001.49
2019-06-07T15:03:19.068Z,1001.51
2019-06-07T15:04:19.074Z,1001.55
2019-06-07T15:05:19.048Z,1001.55
2019-06-07T15:06:19.036Z,1001.57
2019-06-07T15:07:19.027Z,1001.48
2019-06-07T15:08:19.023Z,1001.54
2019-06-07T15:09:19.017Z,1001.59
2019-06-07T15:10:18.995Z,1001.59
2019-06-07T15:11:18.983Z,1001.67
2019-06-07T15:12:25.105Z,1001.59
2019-06-07T15:13:19.956Z,1001.67
2019-06-07T15:14:18.955Z,1001.71
2019-06-07T15:15:18.936Z,1001.72
2019-06-07T15:16:18.926Z,1001.70
2019-06-07T15:17:18.933Z,1001.63
2019-06-07T15:18:18.912Z,1001.63
2019-06-07T15:19:18.902Z,1001.61
2019-06-07T15:20:18.885Z,1001.68
2019-06-07T15:21:18.874Z,1001.57
2019-06-07T15:22:18.865Z,1001.60
2019-06-07T15:23:18.853Z,1001.64
2019-06-07T15:24:18.848Z,1001.59
2019-06-07T15:25:18.831Z,1001.63
2019-06-07T15:26:18.829Z,1001.71
2019-06-07T15:27:18.807Z,1001.77
2019-06-07T15:28:18.802Z,1001.77
2019-06-07T15:29:18.797Z,1001.89
2019-06-07T15:30:18.780Z,1001.93
2019-06-07T15:31:18.766Z,1002.03
2019-06-07T15:32:18.765Z,1002.14
2019-06-07T15:33:18.738Z,1002.36
2019-06-07T15:34:18.741Z,1002.56
2019-06-07T15:35:18.715Z,1002.89
2019-06-07T15:36:18.703Z,1003.22
2019-06-07T15:37:18.701Z,1003.13
2019-06-07T15:38:18.683Z,1003.35
2019-06-07T15:39:18.673Z,1002.97
2019-06-07T15:40:18.668Z,1003.16
2019-06-07T15:41:18.658Z,1002.99
2019-06-07T15:42:18.637Z,1002.98
2019-06-07T15:43:18.629Z,1003.03
2019-06-07T15:44:18.654Z,1003.12
2019-06-07T15:45:18.617Z,1002.98
2019-06-07T15:46:18.595Z,1002.94
2019-06-07T15:47:18.589Z,1002.90
2019-06-07T15:48:18.573Z,1002.77
2019-06-07T15:49:18.559Z,1002.68
2019-06-07T15:50:18.561Z,1002.78
2019-06-07T15:51:18.539Z,1002.71
2019-06-07T15:52:18.529Z,1002.80
2019-06-07T15:53:18.552Z,1002.69
2019-06-07T15:54:18.543Z,1002.73
2019-06-07T15:55:18.501Z,1002.75
2019-06-07T15:56:18.485Z,1002.79
2019-06-07T15:57:18.471Z,1002.83
2019-06-07T15:58:18.468Z,1002.82
2019-06-07T15:59:18.477Z,1002.87
2019-06-07T16:00:18.451Z,1002.80
2019-06-07T16:01:18.432Z,1002.81
2019-06-07T16:02:18.450Z,1002.73
2019-06-07T16:03:18.432Z,1002.78
2019-06-07T16:04:18.418Z,1002.84
2019-06-07T16:05:18.397Z,1002.81
2019-06-07T16:06:19.687Z,1002.80
2019-06-07T16:07:18.361Z,1002.86
2019-06-07T16:08:18.351Z,1002.86
2019-06-07T16:09:18.359Z,1002.86
2019-06-07T16:10:18.342Z,1002.94
2019-06-07T16:11:18.316Z,1003.22
2019-06-07T16:12:18.305Z,1003.42
2019-06-07T16:13:18.293Z,1003.55
2019-06-07T16:14:18.325Z,1003.64
2019-06-07T16:15:18.579Z,1003.80
2019-06-07T16:16:18.262Z,1003.77
2019-06-07T16:17:18.250Z,1003.82
2019-06-07T16:18:18.243Z,1003.99
2019-06-07T16:19:18.228Z,1003.97
2019-06-07T16:20:18.244Z,1003.90
2019-06-07T16:21:18.205Z,1003.88
2019-06-07T16:22:18.192Z,1003.88
2019-06-07T16:23:18.180Z,1003.92
2019-06-07T16:24:18.170Z,1003.97
2019-06-07T16:25:18.169Z,1004.10
2019-06-07T16:26:18.154Z,1004.06
2019-06-07T16:27:18.134Z,1004.34
2019-06-07T16:28:18.120Z,1004.14
2019-06-07T16:29:18.109Z,1004.19
2019-06-07T16:30:18.097Z,1004.24
2019-06-07T16:31:18.103Z,1004.43
2019-06-07T16:32:18.087Z,1004.33
2019-06-07T16:33:18.070Z,1004.43
2019-06-07T16:34:18.080Z,1004.53
2019-06-07T16:35:18.089Z,1004.57
2019-06-07T16:36:18.042Z,1004.62
2019-06-07T16:37:18.020Z,1004.53
2019-06-07T16:38:18.054Z,1004.56
2019-06-07T16:39:17.999Z,1004.49
2019-06-07T16:40:17.996Z,1004.59
2019-06-07T16:41:18.007Z,1004.54
2019-06-07T16:42:17.968Z,1004.39
2019-06-07T16:43:18.689Z,1004.47
2019-06-07T16:44:17.942Z,1004.42
2019-06-07T16:45:17.932Z,1004.52
2019-06-07T16:46:17.973Z,1004.45
2019-06-07T16:47:17.909Z,1004.54
2019-06-07T16:48:17.932Z,1004.69
2019-06-07T16:49:17.891Z,1004.61
2019-06-07T16:50:17.875Z,1004.54
2019-06-07T16:51:17.877Z,1004.50
2019-06-07T16:52:17.853Z,1004.54
2019-06-07T16:53:17.907Z,1004.65
2019-06-07T16:54:17.852Z,1004.61
2019-06-07T16:55:17.819Z,1004.75
2019-06-07T16:56:17.822Z,1004.74
2019-06-07T16:57:17.913Z,1004.86
2019-06-07T16:58:17.789Z,1004.89
2019-06-07T16:59:17.780Z,1004.92
2019-06-07T17:00:17.866Z,1004.91
2019-06-07T17:01:17.785Z,1004.95
2019-06-07T17:02:17.790Z,1004.98
2019-06-07T17:03:17.744Z,1005.01
2019-06-07T17:04:17.723Z,1005.05
2019-06-07T17:05:17.712Z,1005.11
2019-06-07T17:06:17.710Z,1005.15
2019-06-07T17:07:17.698Z,1005.18
2019-06-07T17:08:17.777Z,1005.41
2019-06-07T17:09:17.689Z,1005.33
2019-06-07T17:10:17.657Z,1005.33
2019-06-07T17:11:17.687Z,1005.36
2019-06-07T17:12:17.641Z,1005.50
2019-06-07T17:13:32.543Z,1005.36
2019-06-07T17:14:18.616Z,1005.53
2019-06-07T17:15:17.600Z,1005.57
2019-06-07T17:16:18.080Z,1005.64
2019-06-07T17:17:17.576Z,1005.61
2019-06-07T17:18:17.567Z,1005.63
2019-06-07T17:19:17.558Z,1005.58
2019-06-07T17:20:17.562Z,1005.59
2019-06-07T17:21:17.551Z,1005.71
2019-06-07T17:22:17.522Z,1005.51
2019-06-07T17:23:17.520Z,1005.50
2019-06-07T17:24:17.502Z,1005.52
2019-06-07T17:25:17.491Z,1005.43
2019-06-07T17:26:17.482Z,1005.40
2019-06-07T17:27:17.478Z,1005.47
2019-06-07T17:28:17.467Z,1005.40
2019-06-07T17:29:17.454Z,1005.36
2019-06-07T17:30:17.435Z,1005.43
2019-06-07T17:31:17.497Z,1005.29
2019-06-07T17:32:17.419Z,1005.30
2019-06-07T17:33:17.401Z,1005.31
2019-06-07T17:34:17.429Z,1005.38
2019-06-07T17:35:17.381Z,1005.36
2019-06-07T17:36:17.366Z,1005.38
2019-06-07T17:37:17.362Z,1005.38
2019-06-07T17:38:17.346Z,1005.33
2019-06-07T17:39:17.337Z,1005.28
2019-06-07T17:40:17.341Z,1005.17
2019-06-07T17:41:17.315Z,1005.27
2019-06-07T17:42:17.373Z,1005.31
2019-06-07T17:43:17.295Z,1005.31
2019-06-07T17:44:17.283Z,1005.22
2019-06-07T17:45:17.293Z,1005.25
2019-06-07T17:46:17.256Z,1005.25
2019-06-07T17:47:17.264Z,1005.21
2019-06-07T17:48:17.252Z,1005.21
2019-06-07T17:49:17.222Z,1005.12
2019-06-07T17:50:17.212Z,1005.05